createdAt,value
2023-02-25T00:02:02.732Z,89.08
2023-02-25T00:05:32.149Z,88.98
2023-02-25T00:08:59.458Z,89.03
2023-02-25T00:12:26.622Z,89.10
2023-02-25T00:15:53.846Z,89.20
2023-02-25T00:19:21.221Z,88.84
2023-02-25T00:22:48.353Z,88.86
2023-02-25T00:26:17.049Z,88.94
2023-02-25T00:29:44.520Z,88.90
2023-02-25T00:33:12.150Z,88.85
2023-02-25T00:36:39.874Z,89.05
2023-02-25T00:40:14.614Z,89.11
2023-02-25T00:43:43.817Z,89.18
2023-02-25T00:47:11.057Z,89.19
2023-02-25T00:50:39.757Z,88.87
2023-02-25T00:54:07.190Z,89.18
2023-02-25T00:57:34.376Z,89.11
2023-02-25T01:01:01.915Z,89.10
2023-02-25T01:04:29.232Z,88.90
2023-02-25T01:07:56.930Z,89.02
2023-02-25T01:11:27.837Z,88.86
2023-02-25T01:14:57.801Z,89.00
2023-02-25T01:18:26.459Z,89.03
2023-02-25T01:21:56.918Z,88.94
2023-02-25T01:25:25.550Z,88.95
2023-02-25T01:29:02.116Z,88.93
2023-02-25T01:32:29.377Z,88.96
2023-02-25T01:35:56.636Z,88.90
2023-02-25T01:39:26.515Z,88.88
2023-02-25T01:42:53.864Z,88.83
2023-02-25T01:46:32.426Z,88.85
2023-02-25T01:49:59.790Z,88.75
2023-02-25T01:53:31.842Z,88.77
2023-02-25T01:57:07.686Z,88.77
2023-02-25T02:00:35.664Z,88.75
2023-02-25T02:04:05.341Z,88.71
2023-02-25T02:07:30.968Z,88.76
2023-02-25T02:10:59.008Z,88.81
2023-02-25T02:14:31.104Z,88.93
2023-02-25T02:18:01.152Z,88.97
2023-02-25T02:21:50.804Z,89.02
2023-02-25T02:25:51.710Z,89.14
2023-02-25T02:29:47.073Z,89.06
2023-02-25T02:33:21.089Z,88.97
2023-02-25T02:36:57.497Z,89.08
2023-02-25T02:40:39.999Z,88.97
2023-02-25T02:44:14.285Z,89.08
2023-02-25T02:47:44.912Z,89.03
2023-02-25T02:51:17.200Z,88.87
2023-02-25T02:54:50.790Z,88.92
2023-02-25T02:58:22.953Z,88.92
2023-02-25T03:01:56.100Z,88.97
2023-02-25T03:05:26.561Z,88.83
2023-02-25T03:08:58.104Z,88.90
2023-02-25T03:12:25.192Z,88.88
2023-02-25T03:15:55.112Z,88.90
2023-02-25T03:19:26.831Z,88.87
2023-02-25T03:22:57.822Z,88.95
2023-02-25T03:26:30.028Z,88.87
2023-02-25T03:30:08.005Z,88.90
2023-02-25T03:33:40.247Z,89.07
2023-02-25T03:37:15.536Z,89.09
2023-02-25T03:40:44.473Z,89.10
2023-02-25T03:44:16.507Z,89.20
2023-02-25T03:47:44.860Z,89.25
2023-02-25T03:51:14.284Z,89.24
2023-02-25T03:54:42.525Z,89.39
2023-02-25T03:58:11.985Z,89.39
2023-02-25T04:01:40.945Z,89.53
2023-02-25T04:05:10.122Z,89.66
2023-02-25T04:08:37.271Z,89.61
2023-02-25T04:12:06.110Z,89.77
2023-02-25T04:15:33.675Z,89.80
2023-02-25T04:19:01.128Z,90.04
2023-02-25T04:22:30.126Z,90.27
2023-02-25T04:25:57.577Z,90.79
2023-02-25T04:29:25.272Z,91.06
2023-02-25T04:32:52.591Z,91.54
2023-02-25T04:36:30.174Z,91.85
2023-02-25T04:39:57.416Z,92.06
2023-02-25T04:43:24.662Z,91.99
2023-02-25T04:46:52.250Z,92.32
2023-02-25T04:50:20.299Z,92.65
2023-02-25T04:53:47.993Z,92.73
2023-02-25T04:57:15.315Z,93.18
2023-02-25T05:00:47.704Z,93.35
2023-02-25T05:04:14.944Z,93.27
2023-02-25T05:07:42.235Z,93.17
2023-02-25T05:11:09.599Z,93.25
2023-02-25T05:14:37.993Z,93.48
2023-02-25T05:18:05.310Z,93.53
2023-02-25T05:21:32.735Z,93.57
2023-02-25T05:24:59.869Z,93.68
2023-02-25T05:28:27.618Z,93.84
2023-02-25T05:31:55.421Z,94.37
2023-02-25T05:35:23.158Z,94.12
2023-02-25T05:38:51.222Z,94.57
2023-02-25T05:42:18.289Z,94.79
2023-02-25T05:45:45.496Z,95.07
2023-02-25T05:49:13.196Z,95.18
2023-02-25T05:52:40.571Z,95.48
2023-02-25T05:56:12.350Z,95.40
2023-02-25T05:59:39.727Z,95.36
2023-02-25T06:03:07.910Z,95.67
2023-02-25T06:06:35.693Z,95.55
2023-02-25T06:10:03.316Z,95.61
2023-02-25T06:13:30.454Z,95.45
2023-02-25T06:16:57.602Z,95.40
2023-02-25T06:20:25.333Z,95.36
2023-02-25T06:23:53.667Z,95.45
2023-02-25T06:27:21.039Z,95.11
2023-02-25T06:30:48.443Z,95.06
2023-02-25T06:34:15.775Z,95.20
2023-02-25T06:37:43.277Z,95.42
2023-02-25T06:41:14.157Z,95.06
2023-02-25T06:44:41.504Z,95.29
2023-02-25T06:48:08.795Z,94.80
2023-02-25T06:51:35.895Z,95.09
2023-02-25T06:55:03.074Z,95.08
2023-02-25T06:58:30.382Z,95.04
2023-02-25T07:01:57.819Z,94.87
2023-02-25T07:05:25.107Z,95.19
2023-02-25T07:08:52.262Z,95.03
2023-02-25T07:12:20.006Z,95.03
2023-02-25T07:15:47.198Z,95.12
2023-02-25T07:19:16.995Z,94.94
2023-02-25T07:22:44.885Z,94.55
2023-02-25T07:26:14.527Z,94.60
2023-02-25T07:29:40.096Z,94.40
2023-02-25T07:33:07.463Z,94.67
2023-02-25T07:36:37.892Z,94.37
2023-02-25T07:40:13.091Z,94.18
2023-02-25T07:43:40.364Z,94.08
2023-02-25T07:47:07.801Z,94.06
2023-02-25T07:50:36.403Z,94.20
2023-02-25T07:54:03.553Z,94.11
2023-02-25T07:57:30.644Z,93.95
2023-02-25T08:00:58.294Z,94.11
2023-02-25T08:04:25.815Z,93.81
2023-02-25T08:07:52.883Z,93.54
2023-02-25T08:11:21.266Z,93.32
2023-02-25T08:14:48.537Z,92.96
2023-02-25T08:18:15.772Z,92.69
2023-02-25T08:21:42.985Z,92.49
2023-02-25T08:25:11.963Z,92.57
2023-02-25T08:28:39.799Z,92.46
2023-02-25T08:32:09.120Z,92.66
2023-02-25T08:35:36.837Z,92.59
2023-02-25T08:39:03.970Z,92.87
2023-02-25T08:42:33.736Z,92.76
2023-02-25T08:46:01.606Z,92.48
2023-02-25T08:49:29.467Z,92.46
2023-02-25T08:52:57.824Z,92.38
2023-02-25T08:56:25.013Z,92.28
2023-02-25T08:59:52.309Z,92.13
2023-02-25T09:03:19.758Z,91.77
2023-02-25T09:06:48.196Z,91.33
2023-02-25T09:10:16.108Z,91.21
2023-02-25T09:13:43.388Z,91.28
2023-02-25T09:17:10.851Z,91.35
2023-02-25T09:20:38.149Z,91.13
2023-02-25T09:24:05.824Z,90.65
2023-02-25T09:27:33.128Z,90.07
2023-02-25T09:31:02.546Z,89.93
2023-02-25T09:34:30.504Z,89.68
2023-02-25T09:37:57.619Z,89.46
2023-02-25T09:41:33.911Z,89.02
2023-02-25T09:45:04.871Z,88.06
2023-02-25T09:48:35.771Z,87.68
2023-02-25T09:52:11.225Z,87.09
2023-02-25T09:55:40.833Z,87.04
2023-02-25T09:59:14.692Z,87.12
2023-02-25T10:02:48.533Z,86.88
2023-02-25T10:06:22.209Z,86.73
2023-02-25T10:09:57.663Z,86.28
2023-02-25T10:13:33.559Z,85.63
2023-02-25T10:17:11.515Z,85.98
2023-02-25T10:20:50.377Z,85.45
2023-02-25T10:24:28.275Z,85.58
2023-02-25T10:28:01.099Z,85.33
2023-02-25T10:31:32.034Z,84.74
2023-02-25T10:35:03.860Z,85.75
2023-02-25T10:38:31.170Z,85.65
2023-02-25T10:41:58.341Z,85.51
2023-02-25T10:45:27.642Z,85.32
2023-02-25T10:48:59.231Z,85.45
2023-02-25T10:52:26.294Z,85.82
2023-02-25T10:55:54.978Z,85.95
2023-02-25T10:59:31.337Z,86.07
2023-02-25T11:03:01.622Z,86.01
2023-02-25T11:06:31.852Z,85.76
2023-02-25T11:10:20.706Z,85.71
2023-02-25T11:13:54.549Z,86.15
2023-02-25T11:17:23.030Z,85.98
2023-02-25T11:20:54.706Z,85.14
2023-02-25T11:24:31.384Z,84.90
2023-02-25T11:27:59.926Z,84.91
2023-02-25T11:31:32.843Z,84.29
2023-02-25T11:35:07.953Z,83.47
2023-02-25T11:38:39.343Z,82.66
2023-02-25T11:42:24.513Z,81.49
2023-02-25T11:45:55.815Z,82.11
2023-02-25T11:49:32.958Z,81.64
2023-02-25T11:53:09.824Z,81.85
2023-02-25T11:56:40.952Z,82.29
2023-02-25T12:00:25.727Z,82.45
2023-02-25T12:04:14.805Z,82.37
2023-02-25T12:08:13.064Z,82.37
2023-02-25T12:12:21.117Z,82.63
2023-02-25T12:16:14.727Z,83.07
2023-02-25T12:20:28.823Z,82.99
2023-02-25T12:24:22.036Z,83.52
2023-02-25T12:28:19.440Z,83.87
2023-02-25T12:32:08.478Z,84.15
2023-02-25T12:35:57.022Z,84.11
2023-02-25T12:39:42.045Z,84.75
2023-02-25T12:43:22.614Z,85.54
2023-02-25T12:47:06.643Z,86.22
2023-02-25T12:50:55.520Z,86.82
2023-02-25T12:54:48.958Z,87.27
2023-02-25T12:58:44.303Z,87.87
2023-02-25T13:02:50.289Z,88.96
2023-02-25T13:06:43.131Z,89.61
2023-02-25T13:10:31.536Z,89.74
2023-02-25T13:14:16.229Z,90.11
2023-02-25T13:17:58.782Z,90.78
2023-02-25T13:21:46.207Z,90.86
2023-02-25T13:25:24.133Z,91.02
2023-02-25T13:29:14.505Z,91.06
2023-02-25T13:32:51.201Z,91.15
2023-02-25T13:36:43.528Z,91.49
2023-02-25T13:40:27.245Z,91.23
2023-02-25T13:44:28.198Z,91.10
2023-02-25T13:48:06.900Z,90.58
2023-02-25T13:51:56.883Z,89.96
2023-02-25T13:55:46.616Z,89.52
2023-02-25T13:59:33.615Z,89.14
2023-02-25T14:03:46.079Z,89.27
2023-02-25T14:07:49.084Z,88.63
2023-02-25T14:11:32.679Z,88.12
2023-02-25T14:15:17.654Z,87.39
2023-02-25T14:19:00.986Z,87.06
2023-02-25T14:22:37.032Z,87.21
2023-02-25T14:26:24.253Z,87.07
2023-02-25T14:30:04.891Z,86.60
2023-02-25T14:33:54.249Z,86.73
2023-02-25T14:37:36.713Z,86.82
2023-02-25T14:41:27.023Z,86.71
2023-02-25T14:45:03.190Z,86.42
2023-02-25T14:48:34.174Z,86.39
2023-02-25T14:52:36.929Z,86.81
2023-02-25T14:56:43.167Z,87.45
2023-02-25T15:00:55.633Z,88.55
2023-02-25T15:04:39.063Z,90.33
2023-02-25T15:08:24.747Z,91.38
2023-02-25T15:12:18.209Z,92.00
2023-02-25T15:16:03.972Z,93.45
2023-02-25T15:20:04.460Z,93.81
2023-02-25T15:23:52.091Z,93.90
2023-02-25T15:27:56.640Z,95.88
2023-02-25T15:31:33.896Z,94.77
2023-02-25T15:35:05.329Z,95.38
2023-02-25T15:38:47.931Z,95.77
2023-02-25T15:42:16.313Z,95.16
2023-02-25T15:45:46.003Z,95.97
2023-02-25T15:49:24.073Z,95.86
2023-02-25T15:53:00.497Z,96.50
2023-02-25T15:56:58.055Z,97.56
2023-02-25T16:00:52.442Z,98.38
2023-02-25T16:04:45.874Z,98.17
2023-02-25T16:08:28.935Z,98.85
2023-02-25T16:11:57.502Z,98.80
2023-02-25T16:15:32.455Z,98.27
2023-02-25T16:19:01.751Z,97.48
2023-02-25T16:22:30.877Z,96.91
2023-02-25T16:26:08.426Z,96.97
2023-02-25T16:29:49.810Z,96.71
2023-02-25T16:33:28.008Z,96.67
2023-02-25T16:37:05.315Z,96.88
2023-02-25T16:40:36.784Z,96.27
2023-02-25T16:44:04.541Z,95.73
2023-02-25T16:47:34.842Z,94.96
2023-02-25T16:51:12.611Z,94.81
2023-02-25T16:54:41.130Z,94.41
2023-02-25T16:58:24.445Z,94.01
2023-02-25T17:01:58.728Z,93.99
2023-02-25T17:05:30.209Z,93.59
2023-02-25T17:08:57.225Z,93.31
2023-02-25T17:12:30.815Z,93.40
2023-02-25T17:16:00.820Z,93.65
2023-02-25T17:19:28.066Z,93.29
2023-02-25T17:22:56.427Z,92.22
2023-02-25T17:26:24.629Z,92.05
2023-02-25T17:29:52.435Z,92.00
2023-02-25T17:33:27.107Z,92.28
2023-02-25T17:36:55.339Z,91.09
2023-02-25T17:40:26.911Z,90.41
2023-02-25T17:43:54.386Z,90.12
2023-02-25T17:47:25.731Z,90.25
2023-02-25T17:50:59.246Z,90.29
2023-02-25T17:54:28.725Z,89.84
2023-02-25T17:57:58.571Z,89.77
2023-02-25T18:01:31.980Z,89.45
2023-02-25T18:05:21.814Z,89.17
2023-02-25T18:08:55.506Z,88.83
2023-02-25T18:12:27.912Z,88.15
2023-02-25T18:16:37.887Z,87.79
2023-02-25T18:20:11.317Z,86.11
2023-02-25T18:23:38.449Z,86.03
2023-02-25T18:27:29.358Z,85.23
2023-02-25T18:30:56.578Z,85.07
2023-02-25T18:34:23.917Z,85.76
2023-02-25T18:37:53.345Z,85.74
2023-02-25T18:41:20.654Z,86.27
2023-02-25T18:44:49.045Z,86.88
2023-02-25T18:48:16.349Z,87.26
2023-02-25T18:51:44.106Z,87.42
2023-02-25T18:55:19.005Z,87.73
2023-02-25T18:58:46.237Z,87.39
2023-02-25T19:02:27.226Z,87.82
2023-02-25T19:05:54.499Z,87.91
2023-02-25T19:09:22.889Z,88.09
2023-02-25T19:12:55.226Z,88.01
2023-02-25T19:16:23.576Z,88.26
2023-02-25T19:19:50.933Z,88.30
2023-02-25T19:23:19.944Z,88.42
2023-02-25T19:26:47.135Z,88.37
2023-02-25T19:30:17.771Z,88.49
2023-02-25T19:33:46.032Z,88.62
2023-02-25T19:37:14.213Z,88.49
2023-02-25T19:40:41.349Z,88.49
2023-02-25T19:44:09.646Z,88.49
2023-02-25T19:47:36.773Z,88.27
2023-02-25T19:51:08.255Z,88.50
2023-02-25T19:54:35.586Z,88.31
2023-02-25T19:58:03.316Z,88.37
2023-02-25T20:01:30.712Z,88.22
2023-02-25T20:04:57.891Z,88.37
2023-02-25T20:08:25.237Z,88.21
2023-02-25T20:11:52.943Z,88.23
2023-02-25T20:15:20.665Z,88.21
2023-02-25T20:18:51.240Z,88.25
2023-02-25T20:22:21.471Z,88.22
2023-02-25T20:25:48.747Z,88.55
2023-02-25T20:29:16.280Z,88.56
2023-02-25T20:32:44.537Z,88.62
2023-02-25T20:36:22.849Z,88.60
2023-02-25T20:39:54.937Z,88.75
2023-02-25T20:43:22.800Z,88.76
2023-02-25T20:46:51.074Z,89.05
2023-02-25T20:50:23.741Z,89.71
2023-02-25T20:53:51.773Z,89.77
2023-02-25T20:57:21.286Z,89.78
2023-02-25T21:00:46.880Z,90.08
2023-02-25T21:04:14.160Z,90.62
2023-02-25T21:07:41.356Z,90.52
2023-02-25T21:11:09.253Z,91.06
2023-02-25T21:14:36.678Z,91.38
2023-02-25T21:18:04.309Z,92.21
2023-02-25T21:21:31.736Z,92.17
2023-02-25T21:24:59.209Z,92.57
2023-02-25T21:28:27.561Z,92.42
2023-02-25T21:31:54.795Z,93.21
2023-02-25T21:35:25.139Z,93.85
2023-02-25T21:38:52.582Z,93.83
2023-02-25T21:42:20.157Z,93.54
2023-02-25T21:45:56.991Z,93.50
2023-02-25T21:49:25.034Z,93.27
2023-02-25T21:52:52.510Z,93.31
2023-02-25T21:56:20.388Z,92.95
2023-02-25T21:59:47.743Z,92.88
2023-02-25T22:03:15.094Z,93.51
2023-02-25T22:06:43.099Z,93.82
2023-02-25T22:10:12.453Z,94.35
2023-02-25T22:13:38.031Z,94.36
2023-02-25T22:17:05.122Z,94.04
2023-02-25T22:20:32.182Z,93.81
2023-02-25T22:24:01.729Z,94.02
2023-02-25T22:27:27.500Z,94.62
2023-02-25T22:30:54.716Z,94.57
2023-02-25T22:34:22.186Z,94.64
2023-02-25T22:37:49.374Z,94.46
2023-02-25T22:41:18.570Z,94.57
2023-02-25T22:52:36.746Z,94.91
2023-02-25T22:56:15.516Z,94.66
2023-02-25T22:59:52.233Z,94.51
2023-02-25T23:03:40.347Z,94.38
2023-02-25T23:07:28.062Z,94.64
2023-02-25T23:11:12.419Z,94.55
2023-02-25T23:15:00.174Z,95.12
2023-02-25T23:18:31.758Z,94.90
2023-02-25T23:22:10.493Z,95.10
2023-02-25T23:25:58.021Z,94.78
2023-02-25T23:29:44.405Z,95.06
2023-02-25T23:33:33.261Z,95.32
2023-02-25T23:37:20.803Z,95.00
2023-02-25T23:41:02.951Z,95.14
2023-02-25T23:44:49.218Z,94.86
2023-02-25T23:48:26.619Z,94.78
2023-02-25T23:52:04.260Z,94.81
2023-02-25T23:55:51.697Z,94.96
2023-02-25T23:59:45.492Z,94.92
